Time;durP1;ratioP1;P1;durP2;ratioP2;P2;SDS_P1;SDS_P2;PMS_P1;PMS_P2;Temp;Humidity;BMP_temperature;BMP_pressure;BME280_temperature;BME280_humidity;BME280_pressure;Samples;Min_cycle;Max_cycle;Signal;HPM_P1;HPM_P2
2022/11/15 00:01:25;;;;;;;52.47;36.67;;;7.00;99.90;;;;;;5133878;27;20206;-91
2022/11/15 00:03:53;;;;;;;58.72;35.92;;;7.00;99.90;;;;;;5135741;27;20213;-91
2022/11/15 00:06:22;;;;;;;49.50;34.80;;;6.90;99.90;;;;;;5135749;27;20206;-91
2022/11/15 00:08:51;;;;;;;56.08;38.22;;;6.90;99.90;;;;;;5134919;27;20211;-90
2022/11/15 00:11:20;;;;;;;51.05;36.85;;;6.90;99.90;;;;;;5135468;27;20298;-91
2022/11/15 00:13:49;;;;;;;52.70;35.50;;;6.90;99.90;;;;;;5135578;27;20218;-91
2022/11/15 00:16:17;;;;;;;58.58;35.75;;;6.90;99.90;;;;;;5135129;27;20237;-91
2022/11/15 00:18:45;;;;;;;49.78;34.42;;;6.90;99.90;;;;;;5135124;27;20213;-90
2022/11/15 00:21:18;;;;;;;46.50;33.60;;;6.90;99.90;;;;;;5135393;27;20269;-91
2022/11/15 00:23:47;;;;;;;42.88;33.20;;;6.90;99.90;;;;;;5135157;27;20217;-91
2022/11/15 00:26:16;;;;;;;59.30;33.85;;;7.00;99.90;;;;;;5135000;27;20215;-91
2022/11/15 00:28:46;;;;;;;66.18;34.65;;;7.00;99.90;;;;;;5134697;27;20211;-91
2022/11/15 00:31:15;;;;;;;56.90;36.17;;;6.90;99.90;;;;;;5134516;27;20289;-91
2022/11/15 00:33:45;;;;;;;57.67;35.80;;;7.00;99.90;;;;;;5135355;27;20203;-90
2022/11/15 00:36:14;;;;;;;55.67;37.05;;;7.00;99.90;;;;;;5135297;27;20223;-91
2022/11/15 00:38:42;;;;;;;58.50;36.85;;;6.90;99.90;;;;;;5137324;27;20213;-91
2022/11/15 00:41:11;;;;;;;59.78;36.72;;;6.90;99.90;;;;;;5137171;27;20203;-91
2022/11/15 00:43:43;;;;;;;49.83;37.53;;;6.90;99.90;;;;;;5137085;27;20230;-90
2022/11/15 00:46:13;;;;;;;53.65;34.08;;;6.90;99.90;;;;;;5137173;27;20298;-91
2022/11/15 00:48:41;;;;;;;51.83;36.05;;;6.90;99.90;;;;;;5136858;27;20214;-92
2022/11/15 00:51:09;;;;;;;46.85;34.13;;;6.90;99.90;;;;;;5137077;27;20213;-92
2022/11/15 00:53:38;;;;;;;49.17;33.70;;;6.90;99.90;;;;;;5136885;27;20235;-91
2022/11/15 00:56:06;;;;;;;60.20;35.83;;;6.90;99.90;;;;;;5136769;27;20314;-91
2022/11/15 00:58:34;;;;;;;54.63;35.92;;;6.90;99.90;;;;;;5136829;27;20248;-91
2022/11/15 01:01:12;;;;;;;45.95;32.72;;;6.90;99.90;;;;;;5136843;27;20203;-92
2022/11/15 01:03:43;;;;;;;57.72;34.58;;;6.90;99.90;;;;;;5136816;27;20203;-93
2022/11/15 01:06:12;;;;;;;45.22;32.13;;;6.90;99.90;;;;;;5137027;27;20207;-91
2022/11/15 01:08:41;;;;;;;44.60;31.63;;;6.80;99.90;;;;;;5137947;27;20294;-92
2022/11/15 01:11:12;;;;;;;50.47;31.90;;;6.80;99.90;;;;;;5137016;27;20195;-91
2022/11/15 01:13:41;;;;;;;43.10;31.85;;;6.90;99.90;;;;;;5137841;27;20199;-91
2022/11/15 01:16:11;;;;;;;53.58;30.48;;;6.90;99.90;;;;;;5137631;27;20237;-91
2022/11/15 01:18:41;;;;;;;50.50;32.72;;;6.90;99.90;;;;;;5136613;27;20203;-91
2022/11/15 01:21:12;;;;;;;58.92;33.80;;;6.90;99.90;;;;;;5136381;27;20203;-92
2022/11/15 01:23:41;;;;;;;49.70;32.63;;;6.90;99.90;;;;;;5136918;27;20209;-91
2022/11/15 01:26:12;;;;;;;39.35;31.27;;;6.90;99.90;;;;;;5136325;27;20203;-92
2022/11/15 01:28:42;;;;;;;48.80;33.90;;;7.00;99.90;;;;;;5136445;27;20217;-91
2022/11/15 01:31:14;;;;;;;52.78;33.67;;;6.90;99.90;;;;;;5136183;27;20198;-91
2022/11/15 01:33:44;;;;;;;54.33;37.72;;;6.90;99.90;;;;;;5136329;27;20195;-91
2022/11/15 01:36:15;;;;;;;64.15;35.50;;;6.90;99.90;;;;;;5138433;27;20215;-90
2022/11/15 01:38:43;;;;;;;48.83;34.13;;;6.90;99.90;;;;;;5137737;27;20205;-91
2022/11/15 01:41:17;;;;;;;47.28;33.17;;;6.90;99.90;;;;;;5135770;27;20207;-91
2022/11/15 01:43:48;;;;;;;50.30;32.83;;;6.90;99.90;;;;;;5136192;27;20209;-91
2022/11/15 01:46:25;;;;;;;53.72;32.83;;;6.90;99.90;;;;;;5136236;27;20203;-92
2022/11/15 01:48:58;;;;;;;46.33;30.95;;;6.90;99.90;;;;;;5136471;27;20210;-91
2022/11/15 01:51:31;;;;;;;50.60;30.98;;;6.80;99.90;;;;;;5135822;27;20232;-90
2022/11/15 01:54:05;;;;;;;45.45;31.25;;;6.80;99.90;;;;;;5135904;27;20222;-92
2022/11/15 01:56:44;;;;;;;46.63;31.60;;;6.80;99.90;;;;;;5135719;27;20225;-90
2022/11/15 01:59:13;;;;;;;52.00;31.38;;;6.70;99.90;;;;;;5135830;27;20203;-91
2022/11/15 02:01:42;;;;;;;45.08;31.60;;;6.70;99.90;;;;;;5135870;27;20230;-90
2022/11/15 02:04:14;;;;;;;48.45;30.55;;;6.70;99.90;;;;;;5135609;27;20207;-90
2022/11/15 02:06:44;;;;;;;55.03;32.22;;;6.80;99.90;;;;;;5135654;27;20210;-90
2022/11/15 02:09:13;;;;;;;58.95;31.25;;;6.80;99.90;;;;;;5135842;27;20217;-92
2022/11/15 02:11:43;;;;;;;43.97;29.27;;;6.80;99.90;;;;;;5135560;27;20219;-91
2022/11/15 02:14:14;;;;;;;49.70;31.33;;;6.80;99.90;;;;;;5135443;27;20210;-93
2022/11/15 02:16:53;;;;;;;44.53;30.63;;;6.80;99.90;;;;;;5135114;27;20316;-92
2022/11/15 02:19:41;;;;;;;41.13;30.35;;;6.80;99.90;;;;;;5135145;27;20214;-91
2022/11/15 02:22:25;;;;;;;45.20;26.55;;;6.80;99.90;;;;;;5135842;27;20223;-91
2022/11/15 02:25:04;;;;;;;43.28;28.83;;;6.80;99.90;;;;;;5135043;27;20214;-91
2022/11/15 02:27:53;;;;;;;59.40;32.88;;;6.80;99.90;;;;;;5135207;27;20209;-92
2022/11/15 02:30:35;;;;;;;52.60;30.42;;;6.80;99.90;;;;;;5135260;27;20210;-91
2022/11/15 02:33:11;;;;;;;51.92;30.48;;;6.80;99.90;;;;;;5135250;27;20237;-90
2022/11/15 02:35:49;;;;;;;53.75;30.67;;;6.80;99.90;;;;;;5134934;27;20219;-91
2022/11/15 02:38:24;;;;;;;41.72;28.85;;;6.90;99.90;;;;;;5134798;27;20209;-90
2022/11/15 02:40:57;;;;;;;69.55;31.33;;;6.90;99.90;;;;;;5135029;27;20217;-90
2022/11/15 02:47:12;;;;;;;53.85;32.60;;;6.90;99.90;;;;;;5135020;27;20199;-91
2022/11/15 02:49:12;;;;;;;60.05;31.77;;;6.90;99.90;;;;;;5134908;27;20205;-91
2022/11/15 02:51:42;;;;;;;56.25;31.08;;;6.90;99.90;;;;;;5134496;27;20231;-91
2022/11/15 02:54:13;;;;;;;56.55;31.38;;;6.90;99.90;;;;;;5134670;27;20211;-91
2022/11/15 02:56:42;;;;;;;55.95;30.23;;;6.90;99.90;;;;;;5134157;27;20223;-91
2022/11/15 02:59:45;;;;;;;50.65;29.92;;;6.90;99.90;;;;;;5134555;27;20213;-91
2022/11/15 03:02:29;;;;;;;43.53;28.70;;;6.90;99.90;;;;;;5128356;27;20275;-90
2022/11/15 03:05:04;;;;;;;51.40;31.30;;;6.90;99.90;;;;;;5135309;27;20211;-91
2022/11/15 03:07:40;;;;;;;55.22;33.00;;;6.90;99.90;;;;;;5135324;27;20207;-90
2022/11/15 03:10:13;;;;;;;57.53;30.25;;;7.00;99.90;;;;;;5134440;27;20294;-91
2022/11/15 03:12:48;;;;;;;50.03;32.25;;;7.00;99.90;;;;;;5134266;27;20222;-91
2022/11/15 03:15:21;;;;;;;49.55;31.83;;;7.00;99.90;;;;;;5134912;27;20195;-90
2022/11/15 03:17:58;;;;;;;47.90;29.92;;;7.00;99.90;;;;;;5133954;27;20234;-91
2022/11/15 03:20:28;;;;;;;48.47;31.42;;;7.00;99.90;;;;;;5134161;27;20207;-90
2022/11/15 03:23:04;;;;;;;59.50;32.33;;;7.00;99.90;;;;;;5134355;27;20231;-90
2022/11/15 03:25:35;;;;;;;55.75;30.30;;;6.90;99.90;;;;;;5133752;27;20203;-91
2022/11/15 03:28:07;;;;;;;49.67;30.05;;;7.00;99.90;;;;;;5134224;27;20205;-93
2022/11/15 03:30:37;;;;;;;46.45;30.42;;;7.00;99.90;;;;;;5133888;27;20199;-92
2022/11/15 03:33:09;;;;;;;40.35;28.98;;;7.00;99.90;;;;;;5134001;27;20215;-92
2022/11/15 03:35:42;;;;;;;42.15;29.33;;;7.10;99.90;;;;;;5133616;27;20209;-92
2022/11/15 03:38:18;;;;;;;38.45;27.85;;;7.10;99.90;;;;;;5133902;27;20210;-92
2022/11/15 03:40:55;;;;;;;39.00;28.48;;;7.10;99.90;;;;;;5134285;27;20199;-91
2022/11/15 03:43:31;;;;;;;35.08;28.20;;;7.10;99.90;;;;;;5133921;27;20226;-92
2022/11/15 03:46:04;;;;;;;66.75;30.10;;;7.10;99.90;;;;;;5133765;27;20251;-92
2022/11/15 03:48:38;;;;;;;42.00;28.42;;;7.00;99.90;;;;;;5133370;27;20203;-92
2022/11/15 03:51:07;;;;;;;46.95;27.63;;;7.10;99.90;;;;;;5133838;27;20280;-92
2022/11/15 03:53:35;;;;;;;42.80;29.15;;;7.10;99.90;;;;;;5133664;27;20227;-92
2022/11/15 03:56:03;;;;;;;42.10;27.85;;;7.10;99.90;;;;;;5134109;27;20210;-91
2022/11/15 03:58:32;;;;;;;38.40;28.52;;;7.10;99.90;;;;;;5133737;28;20209;-91
2022/11/15 04:01:00;;;;;;;37.20;27.33;;;7.20;99.90;;;;;;5133636;28;20198;-92
2022/11/15 04:03:28;;;;;;;38.60;28.73;;;7.20;99.90;;;;;;5133518;28;20303;-92
2022/11/15 04:05:59;;;;;;;38.83;28.95;;;7.10;99.90;;;;;;5133576;28;20230;-92
2022/11/15 04:08:27;;;;;;;37.13;28.38;;;7.10;99.90;;;;;;5133646;28;20210;-92
2022/11/15 04:10:55;;;;;;;43.60;28.63;;;7.10;99.90;;;;;;5133384;28;20210;-92
2022/11/15 04:13:23;;;;;;;41.90;28.80;;;7.10;99.90;;;;;;5133497;28;20248;-92
2022/11/15 04:15:52;;;;;;;49.35;28.63;;;7.10;99.90;;;;;;5133264;28;20199;-92
2022/11/15 04:18:21;;;;;;;43.92;27.95;;;7.10;99.90;;;;;;5133356;28;20233;-91
2022/11/15 04:26:29;;;;;;;37.25;25.60;;;7.10;99.90;;;;;;5132490;28;20203;-92
2022/11/15 04:31:43;;;;;;;40.47;25.90;;;7.20;99.90;;;;;;5133334;28;20227;-91
2022/11/15 04:34:12;;;;;;;47.72;28.33;;;7.20;99.90;;;;;;5133651;28;20226;-91
2022/11/15 04:39:27;;;;;;;39.10;27.75;;;7.10;99.90;;;;;;5133397;28;20230;-91
2022/11/15 04:41:55;;;;;;;49.13;27.55;;;7.20;99.90;;;;;;5132907;28;20229;-92
2022/11/15 04:44:24;;;;;;;42.30;28.27;;;7.20;99.90;;;;;;5133454;28;20202;-92
2022/11/15 04:46:52;;;;;;;37.42;28.65;;;7.20;99.90;;;;;;5134697;27;20199;-90
2022/11/15 04:49:20;;;;;;;36.80;26.73;;;7.10;99.90;;;;;;5137194;27;20207;-91
2022/11/15 04:51:49;;;;;;;48.47;29.45;;;7.10;99.90;;;;;;5137106;27;20230;-91
2022/11/15 04:54:17;;;;;;;37.70;28.33;;;7.20;99.90;;;;;;5136962;27;20205;-91
2022/11/15 04:56:47;;;;;;;53.13;29.70;;;7.20;99.90;;;;;;5136506;27;20231;-89
2022/11/15 04:59:15;;;;;;;49.60;29.20;;;7.20;99.90;;;;;;5137138;27;20207;-92
2022/11/15 05:01:43;;;;;;;38.13;27.75;;;7.20;99.90;;;;;;5137627;27;20227;-91
2022/11/15 05:04:22;;;;;;;38.25;26.83;;;7.20;99.90;;;;;;5137098;27;20203;-92
2022/11/15 05:06:52;;;;;;;50.88;28.67;;;7.20;99.90;;;;;;5136537;27;20203;-91
2022/11/15 05:09:21;;;;;;;58.47;27.83;;;7.10;99.90;;;;;;5137041;27;20241;-91
2022/11/15 05:11:51;;;;;;;38.38;27.40;;;7.10;99.90;;;;;;5136561;27;20223;-92
2022/11/15 05:14:19;;;;;;;48.42;27.08;;;7.10;99.90;;;;;;5136865;27;20214;-91
2022/11/15 05:16:48;;;;;;;41.03;27.27;;;7.10;99.90;;;;;;5136204;27;20207;-91
2022/11/15 05:19:16;;;;;;;49.35;30.27;;;7.10;99.90;;;;;;5136497;27;20203;-91
2022/11/15 05:21:44;;;;;;;41.55;27.30;;;7.20;99.90;;;;;;5136062;27;20227;-91
2022/11/15 05:24:12;;;;;;;44.85;28.67;;;7.10;99.90;;;;;;5136740;27;20206;-91
2022/11/15 05:26:41;;;;;;;44.38;28.52;;;7.10;99.90;;;;;;5136621;27;20209;-90
2022/11/15 05:29:12;;;;;;;49.10;29.95;;;7.20;99.90;;;;;;5135837;27;20214;-91
2022/11/15 05:31:42;;;;;;;44.75;29.23;;;7.20;99.90;;;;;;5136193;27;20226;-91
2022/11/15 05:34:11;;;;;;;46.42;28.98;;;7.20;99.90;;;;;;5136540;27;20207;-91
2022/11/15 05:36:42;;;;;;;44.65;29.00;;;7.20;99.90;;;;;;5136445;27;20239;-91
2022/11/15 05:39:10;;;;;;;43.38;29.52;;;7.20;99.90;;;;;;5135793;27;20226;-91
2022/11/15 05:41:42;;;;;;;50.08;31.17;;;7.10;99.90;;;;;;5136137;27;20232;-91
2022/11/15 05:44:15;;;;;;;42.00;29.90;;;7.20;99.90;;;;;;5135944;27;20239;-89
2022/11/15 05:46:44;;;;;;;42.50;28.35;;;7.20;99.90;;;;;;5135950;27;20206;-91
2022/11/15 05:49:16;;;;;;;44.72;30.52;;;7.20;99.90;;;;;;5136367;27;20199;-91
2022/11/15 05:51:47;;;;;;;42.33;28.25;;;7.20;99.90;;;;;;5135701;27;20236;-91
2022/11/15 05:54:16;;;;;;;40.85;30.33;;;7.20;99.90;;;;;;5135835;27;20202;-91
2022/11/15 05:56:44;;;;;;;54.58;31.92;;;7.30;99.90;;;;;;5137877;27;20207;-90
2022/11/15 05:59:14;;;;;;;47.08;29.75;;;7.30;99.90;;;;;;5134548;27;20241;-91
2022/11/15 06:01:43;;;;;;;54.75;32.42;;;7.30;99.90;;;;;;5136155;27;20223;-91
2022/11/15 06:04:11;;;;;;;43.83;28.48;;;7.30;99.90;;;;;;5135870;27;20203;-92
2022/11/15 06:06:40;;;;;;;45.53;30.23;;;7.40;99.90;;;;;;5135380;27;20198;-91
2022/11/15 06:09:08;;;;;;;55.40;31.52;;;7.40;99.90;;;;;;5136185;27;20205;-91
2022/11/15 06:11:36;;;;;;;43.67;30.42;;;7.30;99.90;;;;;;5135390;27;20223;-91
2022/11/15 06:14:05;;;;;;;54.03;30.30;;;7.30;99.90;;;;;;5135408;27;20203;-91
2022/11/15 06:16:35;;;;;;;46.25;28.17;;;7.30;99.90;;;;;;5135664;27;20200;-92
2022/11/15 06:19:03;;;;;;;47.20;30.42;;;7.40;99.90;;;;;;5139213;27;20226;-92
2022/11/15 06:21:32;;;;;;;48.80;30.05;;;7.40;99.90;;;;;;5135291;27;20195;-92
2022/11/15 06:24:00;;;;;;;49.00;29.30;;;7.40;99.90;;;;;;5135421;27;20210;-92
2022/11/15 06:26:28;;;;;;;48.78;29.63;;;7.40;99.90;;;;;;5135082;27;20213;-93
2022/11/15 06:28:56;;;;;;;46.40;29.00;;;7.40;99.90;;;;;;5135283;27;20201;-92
2022/11/15 06:31:25;;;;;;;45.15;28.80;;;7.30;99.90;;;;;;5134593;27;20203;-92
2022/11/15 06:33:55;;;;;;;49.67;29.08;;;7.30;99.90;;;;;;5135177;27;20203;-91
2022/11/15 06:36:23;;;;;;;58.75;28.80;;;7.30;99.90;;;;;;5135551;27;20199;-91
2022/11/15 06:38:51;;;;;;;38.50;27.85;;;7.30;99.90;;;;;;5134726;27;20249;-92
2022/11/15 06:41:21;;;;;;;38.20;27.90;;;7.30;99.90;;;;;;5135805;27;20206;-91
2022/11/15 06:43:49;;;;;;;49.45;28.92;;;7.30;99.90;;;;;;5134902;27;20229;-92
2022/11/15 06:46:19;;;;;;;42.58;28.40;;;7.30;99.90;;;;;;5134947;27;20199;-92
2022/11/15 06:48:49;;;;;;;53.55;32.05;;;7.30;99.90;;;;;;5134308;27;20200;-92
2022/11/15 06:51:19;;;;;;;72.85;31.83;;;7.30;99.90;;;;;;5134357;27;20213;-92
2022/11/15 06:53:47;;;;;;;43.88;29.52;;;7.30;99.90;;;;;;5134684;27;20221;-91
2022/11/15 06:56:15;;;;;;;42.63;27.27;;;7.30;99.90;;;;;;5134586;27;20206;-92
2022/11/15 06:58:44;;;;;;;41.17;28.35;;;7.40;99.90;;;;;;5134352;27;20219;-92
2022/11/15 07:01:13;;;;;;;46.67;29.33;;;7.40;99.90;;;;;;5134582;27;20203;-92
2022/11/15 07:03:42;;;;;;;54.13;28.55;;;7.40;99.90;;;;;;5134507;27;20215;-92
2022/11/15 07:06:12;;;;;;;37.58;25.92;;;7.40;99.90;;;;;;5134484;27;20203;-92
2022/11/15 07:08:42;;;;;;;43.97;27.55;;;7.40;99.90;;;;;;5133916;27;20203;-93
2022/11/15 07:11:11;;;;;;;38.15;26.13;;;7.30;99.90;;;;;;5133872;27;20251;-92
2022/11/15 07:13:39;;;;;;;37.40;25.10;;;7.40;99.90;;;;;;5134238;27;20238;-91
2022/11/15 07:16:09;;;;;;;32.80;24.23;;;7.40;99.90;;;;;;5134301;27;20207;-91
2022/11/15 07:18:39;;;;;;;38.00;25.55;;;7.40;99.90;;;;;;5134047;27;20215;-92
2022/11/15 07:21:10;;;;;;;55.33;24.75;;;7.40;99.90;;;;;;5134303;27;20210;-92
2022/11/15 07:23:39;;;;;;;33.78;25.02;;;7.40;99.90;;;;;;5133947;27;20233;-91
2022/11/15 07:26:09;;;;;;;33.05;23.73;;;7.40;99.90;;;;;;5133912;27;20216;-93
2022/11/15 07:28:38;;;;;;;31.33;23.00;;;7.40;99.90;;;;;;5133821;27;20259;-92
2022/11/15 07:31:08;;;;;;;32.50;23.35;;;7.40;99.90;;;;;;5133850;27;20213;-91
2022/11/15 07:33:36;;;;;;;49.13;27.17;;;7.40;99.90;;;;;;5134130;27;20226;-91
2022/11/15 07:36:07;;;;;;;48.65;25.88;;;7.40;99.90;;;;;;5133930;27;20207;-90
2022/11/15 07:38:36;;;;;;;34.75;25.00;;;7.50;99.90;;;;;;5134032;27;20215;-91
2022/11/15 07:41:11;;;;;;;37.85;23.90;;;7.40;99.90;;;;;;5134006;27;20203;-91
2022/11/15 07:43:39;;;;;;;41.70;26.05;;;7.40;99.90;;;;;;5133859;27;20223;-91
2022/11/15 07:46:09;;;;;;;45.20;25.70;;;7.40;99.90;;;;;;5133779;27;20289;-92
2022/11/15 07:48:39;;;;;;;47.03;26.42;;;7.40;99.90;;;;;;5133686;27;20211;-91
2022/11/15 07:51:15;;;;;;;50.33;27.08;;;7.50;99.90;;;;;;5133798;27;20199;-91
2022/11/15 07:53:43;;;;;;;34.28;25.95;;;7.50;99.90;;;;;;5133548;27;20210;-90
2022/11/15 07:56:13;;;;;;;43.03;27.50;;;7.50;99.90;;;;;;5134114;27;20210;-90
2022/11/15 07:58:42;;;;;;;47.33;27.55;;;7.50;99.90;;;;;;5133816;27;20219;-91
2022/11/15 08:01:11;;;;;;;44.28;27.48;;;7.60;99.90;;;;;;5133986;28;20210;-91
2022/11/15 08:03:40;;;;;;;47.90;30.30;;;7.60;99.90;;;;;;5133757;28;20233;-90
2022/11/15 08:06:08;;;;;;;43.25;27.27;;;7.60;99.90;;;;;;5134097;28;20217;-91
2022/11/15 08:08:36;;;;;;;50.78;29.95;;;7.60;99.90;;;;;;5133671;28;20210;-91
2022/11/15 08:11:05;;;;;;;45.58;30.27;;;7.60;99.90;;;;;;5133566;28;20207;-92
2022/11/15 08:13:35;;;;;;;46.88;29.90;;;7.70;99.90;;;;;;5133992;28;20218;-91
2022/11/15 08:16:05;;;;;;;59.35;31.55;;;7.70;99.90;;;;;;5133589;28;20290;-91
2022/11/15 08:18:34;;;;;;;47.17;28.75;;;7.70;99.90;;;;;;5133494;28;20223;-91
2022/11/15 08:21:02;;;;;;;46.45;28.98;;;7.70;99.90;;;;;;5133279;27;20203;-90
2022/11/15 08:23:31;;;;;;;49.72;30.90;;;7.70;99.90;;;;;;5138014;27;20244;-91
2022/11/15 08:26:02;;;;;;;45.38;29.95;;;7.60;99.90;;;;;;5137746;27;20210;-91
2022/11/15 08:28:31;;;;;;;41.63;28.83;;;7.60;99.90;;;;;;5137669;27;20209;-91
2022/11/15 08:31:01;;;;;;;38.28;28.75;;;7.60;99.90;;;;;;5137868;27;20247;-91
2022/11/15 08:33:30;;;;;;;47.28;29.85;;;7.60;99.90;;;;;;5137575;27;20230;-91
2022/11/15 08:35:59;;;;;;;58.83;32.55;;;7.50;99.90;;;;;;5137794;27;20207;-92
2022/11/15 08:38:28;;;;;;;65.13;30.13;;;7.60;99.90;;;;;;5137595;27;20203;-91
2022/11/15 08:41:03;;;;;;;43.10;29.67;;;7.50;99.90;;;;;;5137578;27;20203;-91
2022/11/15 08:43:32;;;;;;;44.85;28.77;;;7.50;99.90;;;;;;5136999;27;20242;-91
2022/11/15 08:46:02;;;;;;;48.17;31.50;;;7.60;99.90;;;;;;5137462;27;20211;-93
2022/11/15 08:48:31;;;;;;;46.70;30.88;;;7.60;99.90;;;;;;5137399;27;20209;-91
2022/11/15 08:51:00;;;;;;;37.00;26.70;;;7.60;99.90;;;;;;5137284;27;20203;-91
2022/11/15 08:53:28;;;;;;;35.78;26.92;;;7.60;99.90;;;;;;5137063;27;20239;-90
2022/11/15 08:55:57;;;;;;;35.00;24.95;;;7.50;99.90;;;;;;5137396;27;20209;-91
2022/11/15 08:58:25;;;;;;;40.92;25.38;;;7.60;99.90;;;;;;5136898;27;20236;-91
2022/11/15 09:00:53;;;;;;;50.10;27.25;;;7.50;99.90;;;;;;5136831;27;20230;-92
2022/11/15 09:03:23;;;;;;;44.50;28.17;;;7.50;99.90;;;;;;5137182;27;20215;-91
2022/11/15 09:05:56;;;;;;;37.63;27.35;;;7.60;99.90;;;;;;5136877;27;20195;-91
2022/11/15 09:08:25;;;;;;;39.22;28.30;;;7.60;99.90;;;;;;5136508;27;20210;-91
2022/11/15 09:11:14;;;;;;;47.15;29.27;;;7.60;99.90;;;;;;5136454;27;20208;-91
2022/11/15 09:13:43;;;;;;;46.28;29.17;;;7.70;99.90;;;;;;5136798;27;20203;-91
2022/11/15 09:16:11;;;;;;;51.28;28.90;;;7.70;99.90;;;;;;5136606;27;20203;-90
2022/11/15 09:18:43;;;;;;;38.90;25.83;;;7.60;99.90;;;;;;5136566;27;20202;-90
2022/11/15 09:21:13;;;;;;;39.80;27.98;;;7.60;99.90;;;;;;5136377;27;20199;-91
2022/11/15 09:23:47;;;;;;;44.03;27.67;;;7.60;99.90;;;;;;5136260;27;20201;-91
2022/11/15 09:26:16;;;;;;;66.15;30.45;;;7.60;99.90;;;;;;5136393;27;20208;-92
2022/11/15 09:28:44;;;;;;;42.85;28.02;;;7.60;99.90;;;;;;5136350;27;20207;-91
2022/11/15 09:31:13;;;;;;;39.90;27.55;;;7.60;99.90;;;;;;5136374;27;20195;-91
2022/11/15 09:33:52;;;;;;;47.60;28.00;;;7.60;99.90;;;;;;5136168;27;20334;-91
2022/11/15 09:36:20;;;;;;;46.03;30.15;;;7.60;99.90;;;;;;5136184;27;20213;-91
2022/11/15 09:38:49;;;;;;;42.92;27.40;;;7.70;99.90;;;;;;5136379;27;20214;-92
2022/11/15 09:41:51;;;;;;;42.53;29.27;;;7.70;99.90;;;;;;5135863;27;20229;-91
2022/11/15 09:44:47;;;;;;;51.47;30.35;;;7.70;99.90;;;;;;5136060;27;20211;-92
2022/11/15 09:47:52;;;;;;;47.72;30.83;;;7.70;99.90;;;;;;5125464;27;20209;-91
2022/11/15 09:50:32;;;;;;;58.97;30.77;;;7.70;99.90;;;;;;5125591;27;20206;-91
2022/11/15 09:53:01;;;;;;;38.30;28.08;;;7.80;99.90;;;;;;5135766;27;20237;-91
2022/11/15 09:55:42;;;;;;;54.03;32.00;;;7.80;99.90;;;;;;5136445;27;20211;-91
2022/11/15 09:58:19;;;;;;;54.30;30.63;;;7.90;99.90;;;;;;5135415;27;20203;-92
2022/11/15 10:00:53;;;;;;;53.42;33.58;;;7.80;99.90;;;;;;5135553;27;20222;-92
2022/11/15 10:03:28;;;;;;;50.90;32.17;;;7.80;99.90;;;;;;5135634;27;20231;-91
2022/11/15 10:06:02;;;;;;;51.75;31.50;;;7.90;99.90;;;;;;5135889;27;20225;-91
2022/11/15 10:08:47;;;;;;;50.85;28.83;;;7.90;99.90;;;;;;5136222;27;20199;-92
2022/11/15 10:11:22;;;;;;;42.53;30.40;;;7.80;99.90;;;;;;5135454;27;20195;-92
2022/11/15 10:14:14;;;;;;;56.17;32.30;;;7.90;99.90;;;;;;5135606;27;20223;-91
2022/11/15 10:17:12;;;;;;;50.72;31.25;;;7.90;99.90;;;;;;5135526;27;20213;-92
2022/11/15 10:19:51;;;;;;;58.90;32.47;;;7.90;99.90;;;;;;5135704;27;20219;-92
2022/11/15 10:22:27;;;;;;;41.92;27.48;;;7.90;99.90;;;;;;5135440;27;20286;-93
2022/11/15 10:25:12;;;;;;;44.42;31.58;;;7.90;99.90;;;;;;5135479;27;20207;-92
2022/11/15 10:27:41;;;;;;;41.55;30.48;;;7.90;99.90;;;;;;5135107;27;20203;-91
2022/11/15 10:30:13;;;;;;;38.75;30.65;;;7.90;99.90;;;;;;5135309;27;20203;-91
2022/11/15 10:32:44;;;;;;;47.70;30.38;;;7.90;99.90;;;;;;5135335;27;20230;-91
2022/11/15 10:35:21;;;;;;;48.50;29.67;;;8.00;99.90;;;;;;5135294;27;20211;-91
2022/11/15 10:37:51;;;;;;;45.35;31.08;;;7.90;99.90;;;;;;5135116;27;20217;-92
2022/11/15 10:40:22;;;;;;;52.80;32.17;;;7.90;99.90;;;;;;5135030;27;20227;-91
2022/11/15 10:43:07;;;;;;;44.55;31.27;;;7.90;99.90;;;;;;5135402;27;20317;-92
2022/11/15 10:45:35;;;;;;;47.47;34.40;;;8.00;99.90;;;;;;5137291;27;20210;-90
2022/11/15 10:48:23;;;;;;;50.78;33.85;;;8.00;99.90;;;;;;5134678;27;20211;-92
2022/11/15 10:50:54;;;;;;;52.40;34.33;;;8.10;99.90;;;;;;5135125;27;20202;-91
2022/11/15 10:53:30;;;;;;;55.67;34.78;;;8.10;99.90;;;;;;5134253;27;20317;-91
2022/11/15 10:56:02;;;;;;;48.53;33.83;;;8.10;99.90;;;;;;5135173;27;20199;-92
2022/11/15 10:58:38;;;;;;;75.22;36.38;;;8.10;99.90;;;;;;5134574;27;20290;-90
2022/11/15 11:01:16;;;;;;;56.80;35.15;;;8.20;99.90;;;;;;5134816;27;20314;-91
2022/11/15 11:03:46;;;;;;;61.40;37.15;;;8.20;99.90;;;;;;5134880;27;20215;-92
2022/11/15 11:06:16;;;;;;;52.63;32.88;;;8.20;99.90;;;;;;5134658;27;20199;-91
2022/11/15 11:09:02;;;;;;;58.50;33.97;;;8.20;99.90;;;;;;5140119;27;20209;-91
2022/11/15 11:11:47;;;;;;;49.78;33.75;;;8.20;99.90;;;;;;5133613;27;20195;-91
2022/11/15 11:14:22;;;;;;;55.28;32.17;;;8.10;99.90;;;;;;5134590;27;20208;-92
2022/11/15 11:17:05;;;;;;;66.28;36.95;;;8.10;99.90;;;;;;5134467;27;20222;-91
2022/11/15 11:19:55;;;;;;;51.15;33.67;;;8.10;99.90;;;;;;5134880;27;20201;-91
2022/11/15 11:22:31;;;;;;;60.67;37.53;;;8.20;99.90;;;;;;5134288;27;20222;-92
2022/11/15 11:25:13;;;;;;;54.22;34.42;;;8.20;99.90;;;;;;5134149;27;20203;-91
2022/11/15 11:27:51;;;;;;;58.17;34.70;;;8.20;99.90;;;;;;5134526;27;20203;-92
2022/11/15 11:30:24;;;;;;;54.25;35.97;;;8.20;99.90;;;;;;5134180;27;20214;-91
2022/11/15 11:33:13;;;;;;;60.28;36.40;;;8.20;99.90;;;;;;5134023;27;20225;-92
2022/11/15 11:35:59;;;;;;;65.32;35.15;;;8.20;99.90;;;;;;5134149;27;20203;-91
2022/11/15 11:38:51;;;;;;;53.33;36.92;;;8.20;99.90;;;;;;5134498;27;20230;-91
2022/11/15 11:41:39;;;;;;;44.95;32.60;;;8.30;99.90;;;;;;5133665;27;20223;-92
2022/11/15 11:44:19;;;;;;;54.97;33.45;;;8.30;99.90;;;;;;5134051;27;20259;-92
2022/11/15 11:46:58;;;;;;;60.78;35.83;;;8.20;99.90;;;;;;5133504;27;20213;-91
2022/11/15 11:49:33;;;;;;;51.35;32.58;;;8.30;99.90;;;;;;5133975;27;20202;-91
2022/11/15 11:52:08;;;;;;;45.63;33.67;;;8.30;99.90;;;;;;5134592;27;20218;-91
2022/11/15 11:54:48;;;;;;;75.15;36.25;;;8.30;99.90;;;;;;5133603;27;20293;-92
2022/11/15 11:57:28;;;;;;;52.83;33.30;;;8.30;99.90;;;;;;5133878;27;20207;-91
2022/11/15 12:00:03;;;;;;;48.85;34.33;;;8.30;99.90;;;;;;5133740;27;20202;-92
2022/11/15 12:02:35;;;;;;;50.35;35.35;;;8.30;99.90;;;;;;5133214;28;20225;-92
2022/11/15 12:05:12;;;;;;;51.70;35.42;;;8.30;99.90;;;;;;5134097;28;20210;-91
2022/11/15 12:07:59;;;;;;;58.50;34.85;;;8.30;99.90;;;;;;5133916;28;20213;-91
2022/11/15 12:10:34;;;;;;;52.85;33.33;;;8.30;99.90;;;;;;5133838;28;20245;-91
2022/11/15 12:13:11;;;;;;;51.95;32.67;;;8.30;99.90;;;;;;5133358;28;20215;-92
2022/11/15 12:15:44;;;;;;;58.67;34.20;;;8.30;99.90;;;;;;5133550;28;20203;-91
2022/11/15 12:18:20;;;;;;;54.20;33.08;;;8.30;99.90;;;;;;5133589;28;20209;-91
2022/11/15 12:20:54;;;;;;;46.00;32.00;;;8.30;99.90;;;;;;5133284;28;20233;-91
2022/11/15 12:23:29;;;;;;;51.22;34.40;;;8.30;99.90;;;;;;5133225;28;20282;-92
2022/11/15 12:25:59;;;;;;;44.85;32.92;;;8.40;99.90;;;;;;5133594;28;20223;-92
2022/11/15 12:28:36;;;;;;;54.75;32.15;;;8.40;99.90;;;;;;5133222;28;20207;-91
2022/11/15 12:31:07;;;;;;;40.05;29.83;;;8.40;99.90;;;;;;5133656;28;20194;-91
2022/11/15 12:33:38;;;;;;;58.60;34.53;;;8.40;99.90;;;;;;5133229;28;20222;-91
2022/11/15 12:36:11;;;;;;;56.30;31.70;;;8.40;99.90;;;;;;5133567;28;20207;-91
2022/11/15 12:38:55;;;;;;;39.45;30.38;;;8.50;99.90;;;;;;5133513;28;20206;-91
2022/11/15 12:41:25;;;;;;;46.05;33.20;;;8.40;99.90;;;;;;5133602;28;20215;-92
2022/11/15 12:43:56;;;;;;;50.67;31.80;;;8.50;99.90;;;;;;5133427;28;20210;-92
2022/11/15 12:47:09;;;;;;;57.60;33.72;;;8.40;99.90;;;;;;5133575;28;20206;-91
2022/11/15 12:49:46;;;;;;;43.42;29.10;;;8.50;99.90;;;;;;5117726;28;20203;-91
2022/11/15 12:52:15;;;;;;;36.67;28.00;;;8.50;99.90;;;;;;5132609;28;20237;-91
2022/11/15 12:55:01;;;;;;;43.92;29.25;;;8.50;99.90;;;;;;5133566;28;20207;-92
2022/11/15 12:57:41;;;;;;;46.05;32.45;;;8.50;99.90;;;;;;5132955;28;20227;-93
2022/11/15 13:00:42;;;;;;;37.17;30.23;;;8.50;99.90;;;;;;5133286;28;20199;-90
2022/11/15 13:03:27;;;;;;;44.35;30.58;;;8.50;99.90;;;;;;5133242;28;20254;-92
2022/11/15 13:06:31;;;;;;;49.78;32.20;;;8.50;99.90;;;;;;5133045;28;20199;-92
2022/11/15 13:08:59;;;;;;;44.35;30.63;;;8.60;99.90;;;;;;5135963;27;20266;-93
2022/11/15 13:11:46;;;;;;;45.85;30.60;;;8.50;99.90;;;;;;5136586;27;20282;-93
2022/11/15 13:14:54;;;;;;;35.63;28.20;;;8.50;99.90;;;;;;5136803;27;20202;-93
2022/11/15 13:17:40;;;;;;;49.90;29.88;;;8.50;99.90;;;;;;5136813;27;20195;-94
2022/11/15 13:20:29;;;;;;;40.97;29.45;;;8.60;99.90;;;;;;5137313;27;20207;-93